sensor_id;sensor_type;location;lat;lon;timestamp;temperature;humidity
15231;DHT22;32569;51.762;8.564;2024-03-23T00:54:49;8.00;99.90
15231;DHT22;32569;51.762;8.564;2024-03-23T00:57:18;8.00;99.90
15231;DHT22;32569;51.762;8.564;2024-03-23T00:59:44;8.00;99.90
15231;DHT22;32569;51.762;8.564;2024-03-23T01:02:11;8.00;99.90
15231;DHT22;32569;51.762;8.564;2024-03-23T01:04:42;8.00;99.90
15231;DHT22;32569;51.762;8.564;2024-03-23T01:07:09;8.00;99.90
15231;DHT22;32569;51.762;8.564;2024-03-23T01:09:35;7.90;99.90
15231;DHT22;32569;51.762;8.564;2024-03-23T01:12:05;8.00;99.90
15231;DHT22;32569;51.762;8.564;2024-03-23T01:14:31;8.00;99.90
15231;DHT22;32569;51.762;8.564;2024-03-23T01:16:58;8.00;99.90
15231;DHT22;32569;51.762;8.564;2024-03-23T01:19:23;8.00;99.90
15231;DHT22;32569;51.762;8.564;2024-03-23T01:21:50;8.00;99.90
15231;DHT22;32569;51.762;8.564;2024-03-23T01:24:16;8.00;99.90
15231;DHT22;32569;51.762;8.564;2024-03-23T01:26:45;8.00;99.90
15231;DHT22;32569;51.762;8.564;2024-03-23T01:29:20;8.00;99.90
15231;DHT22;32569;51.762;8.564;2024-03-23T01:31:46;8.00;99.90
15231;DHT22;32569;51.762;8.564;2024-03-23T01:34:12;8.00;99.90
15231;DHT22;32569;51.762;8.564;2024-03-23T01:36:39;7.90;99.90
15231;DHT22;32569;51.762;8.564;2024-03-23T01:39:05;7.80;99.90
15231;DHT22;32569;51.762;8.564;2024-03-23T01:41:34;7.60;99.90
15231;DHT22;32569;51.762;8.564;2024-03-23T01:44:05;7.50;99.90
15231;DHT22;32569;51.762;8.564;2024-03-23T01:46:34;7.40;99.90
15231;DHT22;32569;51.762;8.564;2024-03-23T01:49:00;7.50;99.90
15231;DHT22;32569;51.762;8.564;2024-03-23T01:51:27;7.40;99.90
15231;DHT22;32569;51.762;8.564;2024-03-23T01:53:54;7.40;99.90
15231;DHT22;32569;51.762;8.564;2024-03-23T01:56:21;7.30;99.90
15231;DHT22;32569;51.762;8.564;2024-03-23T01:58:46;7.10;99.90
15231;DHT22;32569;51.762;8.564;2024-03-23T02:01:13;7.20;99.90
15231;DHT22;32569;51.762;8.564;2024-03-23T02:03:40;7.10;99.90
15231;DHT22;32569;51.762;8.564;2024-03-23T02:06:08;7.10;99.90
15231;DHT22;32569;51.762;8.564;2024-03-23T02:08:34;7.00;99.90
15231;DHT22;32569;51.762;8.564;2024-03-23T02:11:01;7.00;99.90
15231;DHT22;32569;51.762;8.564;2024-03-23T02:13:26;7.00;99.90
15231;DHT22;32569;51.762;8.564;2024-03-23T02:15:53;6.80;99.90
15231;DHT22;32569;51.762;8.564;2024-03-23T02:18:19;6.80;99.90
15231;DHT22;32569;51.762;8.564;2024-03-23T02:20:47;6.80;99.90
15231;DHT22;32569;51.762;8.564;2024-03-23T02:23:17;6.80;99.90
15231;DHT22;32569;51.762;8.564;2024-03-23T02:25:44;6.90;99.90
15231;DHT22;32569;51.762;8.564;2024-03-23T02:28:10;7.10;99.90
15231;DHT22;32569;51.762;8.564;2024-03-23T02:30:37;7.10;99.90
15231;DHT22;32569;51.762;8.564;2024-03-23T02:33:03;6.90;99.90
15231;DHT22;32569;51.762;8.564;2024-03-23T02:35:30;7.10;99.90
15231;DHT22;32569;51.762;8.564;2024-03-23T02:37:58;7.00;99.90
15231;DHT22;32569;51.762;8.564;2024-03-23T02:40:28;7.10;99.90
15231;DHT22;32569;51.762;8.564;2024-03-23T02:42:53;7.10;99.90
15231;DHT22;32569;51.762;8.564;2024-03-23T02:45:20;7.20;99.90
15231;DHT22;32569;51.762;8.564;2024-03-23T02:47:46;7.20;99.90
15231;DHT22;32569;51.762;8.564;2024-03-23T02:50:20;7.10;99.90
15231;DHT22;32569;51.762;8.564;2024-03-23T02:52:45;7.20;99.90
15231;DHT22;32569;51.762;8.564;2024-03-23T02:55:15;7.30;99.90
15231;DHT22;32569;51.762;8.564;2024-03-23T02:57:42;7.30;99.90
15231;DHT22;32569;51.762;8.564;2024-03-23T03:00:09;7.30;99.90
15231;DHT22;32569;51.762;8.564;2024-03-23T03:02:36;7.10;99.90
15231;DHT22;32569;51.762;8.564;2024-03-23T03:05:04;7.10;99.90
15231;DHT22;32569;51.762;8.564;2024-03-23T03:07:30;7.10;99.90
15231;DHT22;32569;51.762;8.564;2024-03-23T03:09:57;7.10;99.90
15231;DHT22;32569;51.762;8.564;2024-03-23T03:12:22;6.90;99.90
15231;DHT22;32569;51.762;8.564;2024-03-23T03:14:50;6.90;99.90
15231;DHT22;32569;51.762;8.564;2024-03-23T03:17:16;7.00;99.90
15231;DHT22;32569;51.762;8.564;2024-03-23T03:19:43;7.00;99.90
15231;DHT22;32569;51.762;8.564;2024-03-23T03:22:08;7.00;99.90
15231;DHT22;32569;51.762;8.564;2024-03-23T03:24:35;6.90;99.90
15231;DHT22;32569;51.762;8.564;2024-03-23T03:27:02;6.70;99.90
15231;DHT22;32569;51.762;8.564;2024-03-23T03:29:29;6.80;99.90
15231;DHT22;32569;51.762;8.564;2024-03-23T03:32:02;6.80;99.90
15231;DHT22;32569;51.762;8.564;2024-03-23T03:34:28;6.70;99.90
15231;DHT22;32569;51.762;8.564;2024-03-23T03:36:54;6.80;99.90
15231;DHT22;32569;51.762;8.564;2024-03-23T03:39:20;6.90;99.90
15231;DHT22;32569;51.762;8.564;2024-03-23T03:41:48;7.00;99.90
15231;DHT22;32569;51.762;8.564;2024-03-23T03:44:13;7.00;99.90
15231;DHT22;32569;51.762;8.564;2024-03-23T03:46:40;7.00;99.90
15231;DHT22;32569;51.762;8.564;2024-03-23T03:49:07;6.90;99.90
15231;DHT22;32569;51.762;8.564;2024-03-23T03:51:34;6.90;99.90
15231;DHT22;32569;51.762;8.564;2024-03-23T03:54:00;6.90;99.90
15231;DHT22;32569;51.762;8.564;2024-03-23T03:56:26;6.80;99.90
15231;DHT22;32569;51.762;8.564;2024-03-23T03:58:53;6.80;99.90
15231;DHT22;32569;51.762;8.564;2024-03-23T04:01:19;6.80;99.90
15231;DHT22;32569;51.762;8.564;2024-03-23T04:03:45;6.80;99.90
15231;DHT22;32569;51.762;8.564;2024-03-23T04:06:18;6.90;99.90
15231;DHT22;32569;51.762;8.564;2024-03-23T04:08:44;6.90;99.90
15231;DHT22;32569;51.762;8.564;2024-03-23T04:11:11;6.80;99.90
15231;DHT22;32569;51.762;8.564;2024-03-23T04:13:36;6.80;99.90
15231;DHT22;32569;51.762;8.564;2024-03-23T04:16:04;6.80;99.90
15231;DHT22;32569;51.762;8.564;2024-03-23T04:18:29;6.80;99.90
15231;DHT22;32569;51.762;8.564;2024-03-23T04:20:59;6.80;99.90
15231;DHT22;32569;51.762;8.564;2024-03-23T04:23:26;6.80;99.90
15231;DHT22;32569;51.762;8.564;2024-03-23T04:25:52;6.90;99.90
15231;DHT22;32569;51.762;8.564;2024-03-23T04:28:18;6.90;99.90
15231;DHT22;32569;51.762;8.564;2024-03-23T04:30:45;6.80;99.90
15231;DHT22;32569;51.762;8.564;2024-03-23T04:33:11;6.80;99.90
15231;DHT22;32569;51.762;8.564;2024-03-23T04:35:37;6.70;99.90
15231;DHT22;32569;51.762;8.564;2024-03-23T04:38:03;6.70;99.90
15231;DHT22;32569;51.762;8.564;2024-03-23T04:40:31;6.60;99.90
15231;DHT22;32569;51.762;8.564;2024-03-23T04:43:01;6.50;99.90
15231;DHT22;32569;51.762;8.564;2024-03-23T04:45:32;6.50;99.90
15231;DHT22;32569;51.762;8.564;2024-03-23T04:47:59;6.60;99.90
15231;DHT22;32569;51.762;8.564;2024-03-23T04:50:26;6.60;99.90
15231;DHT22;32569;51.762;8.564;2024-03-23T04:52:52;6.60;99.90
15231;DHT22;32569;51.762;8.564;2024-03-23T04:55:19;6.60;99.90
15231;DHT22;32569;51.762;8.564;2024-03-23T04:57:46;6.50;99.90
15231;DHT22;32569;51.762;8.564;2024-03-23T05:00:13;6.50;99.90
15231;DHT22;32569;51.762;8.564;2024-03-23T05:02:45;6.40;99.90
15231;DHT22;32569;51.762;8.564;2024-03-23T05:05:12;6.50;99.90
15231;DHT22;32569;51.762;8.564;2024-03-23T05:07:38;6.50;99.90
15231;DHT22;32569;51.762;8.564;2024-03-23T05:10:05;6.40;99.90
15231;DHT22;32569;51.762;8.564;2024-03-23T05:12:31;6.40;99.90
15231;DHT22;32569;51.762;8.564;2024-03-23T05:14:59;6.40;99.90
15231;DHT22;32569;51.762;8.564;2024-03-23T05:17:24;6.50;99.90
15231;DHT22;32569;51.762;8.564;2024-03-23T05:19:51;6.50;99.90
15231;DHT22;32569;51.762;8.564;2024-03-23T05:22:17;6.50;99.90
15231;DHT22;32569;51.762;8.564;2024-03-23T05:24:45;6.50;99.90
15231;DHT22;32569;51.762;8.564;2024-03-23T05:27:12;6.50;99.90
15231;DHT22;32569;51.762;8.564;2024-03-23T05:29:41;6.40;99.90
15231;DHT22;32569;51.762;8.564;2024-03-23T05:32:08;6.40;99.90
15231;DHT22;32569;51.762;8.564;2024-03-23T05:34:34;6.40;99.90
15231;DHT22;32569;51.762;8.564;2024-03-23T05:37:00;6.30;99.90
15231;DHT22;32569;51.762;8.564;2024-03-23T05:39:28;6.30;99.90
15231;DHT22;32569;51.762;8.564;2024-03-23T05:41:54;6.40;99.90
15231;DHT22;32569;51.762;8.564;2024-03-23T05:44:20;6.40;99.90
15231;DHT22;32569;51.762;8.564;2024-03-23T05:46:46;6.40;99.90
15231;DHT22;32569;51.762;8.564;2024-03-23T05:49:15;6.40;99.90
15231;DHT22;32569;51.762;8.564;2024-03-23T05:51:44;6.50;99.90
15231;DHT22;32569;51.762;8.564;2024-03-23T05:54:10;6.60;99.90
15231;DHT22;32569;51.762;8.564;2024-03-23T05:56:36;6.60;99.90
15231;DHT22;32569;51.762;8.564;2024-03-23T05:59:06;6.60;99.90
15231;DHT22;32569;51.762;8.564;2024-03-23T06:01:32;6.60;99.90
15231;DHT22;32569;51.762;8.564;2024-03-23T06:04:01;6.50;99.90
15231;DHT22;32569;51.762;8.564;2024-03-23T06:06:28;6.60;99.90
15231;DHT22;32569;51.762;8.564;2024-03-23T06:08:56;6.60;99.90
15231;DHT22;32569;51.762;8.564;2024-03-23T06:11:25;6.60;99.90
15231;DHT22;32569;51.762;8.564;2024-03-23T06:13:58;6.60;99.90
15231;DHT22;32569;51.762;8.564;2024-03-23T06:16:24;6.60;99.90
15231;DHT22;32569;51.762;8.564;2024-03-23T06:18:50;6.60;99.90
15231;DHT22;32569;51.762;8.564;2024-03-23T06:21:16;6.60;99.90
15231;DHT22;32569;51.762;8.564;2024-03-23T06:23:45;6.70;99.90
15231;DHT22;32569;51.762;8.564;2024-03-23T06:26:16;6.70;99.90
15231;DHT22;32569;51.762;8.564;2024-03-23T06:28:43;6.70;99.90
15231;DHT22;32569;51.762;8.564;2024-03-23T06:31:09;6.70;99.90
15231;DHT22;32569;51.762;8.564;2024-03-23T06:33:35;6.70;99.90
15231;DHT22;32569;51.762;8.564;2024-03-23T06:36:02;6.70;99.90
15231;DHT22;32569;51.762;8.564;2024-03-23T06:38:28;6.80;99.90
15231;DHT22;32569;51.762;8.564;2024-03-23T06:40:56;6.80;99.90
15231;DHT22;32569;51.762;8.564;2024-03-23T06:43:22;6.70;99.90
15231;DHT22;32569;51.762;8.564;2024-03-23T06:45:52;6.80;99.90
15231;DHT22;32569;51.762;8.564;2024-03-23T06:48:18;6.80;99.90
15231;DHT22;32569;51.762;8.564;2024-03-23T06:50:45;6.80;99.90
15231;DHT22;32569;51.762;8.564;2024-03-23T06:53:11;6.80;99.90
15231;DHT22;32569;51.762;8.564;2024-03-23T06:55:38;6.80;99.90
15231;DHT22;32569;51.762;8.564;2024-03-23T06:58:05;6.90;99.90
15231;DHT22;32569;51.762;8.564;2024-03-23T07:00:32;6.80;99.90
15231;DHT22;32569;51.762;8.564;2024-03-23T07:02:58;6.90;99.90
15231;DHT22;32569;51.762;8.564;2024-03-23T07:05:25;6.90;99.90
15231;DHT22;32569;51.762;8.564;2024-03-23T07:07:50;6.90;99.90
15231;DHT22;32569;51.762;8.564;2024-03-23T07:10:17;6.90;99.90
15231;DHT22;32569;51.762;8.564;2024-03-23T07:12:43;6.90;99.90
15231;DHT22;32569;51.762;8.564;2024-03-23T07:15:11;6.70;99.90
15231;DHT22;32569;51.762;8.564;2024-03-23T07:17:36;6.70;99.90
15231;DHT22;32569;51.762;8.564;2024-03-23T07:20:04;6.60;99.90
15231;DHT22;32569;51.762;8.564;2024-03-23T07:22:30;6.70;99.90
15231;DHT22;32569;51.762;8.564;2024-03-23T07:24:59;6.70;99.90
15231;DHT22;32569;51.762;8.564;2024-03-23T07:27:25;6.80;99.90
15231;DHT22;32569;51.762;8.564;2024-03-23T07:29:51;6.70;99.90
15231;DHT22;32569;51.762;8.564;2024-03-23T07:32:18;6.70;99.90
15231;DHT22;32569;51.762;8.564;2024-03-23T07:34:45;6.80;99.90
15231;DHT22;32569;51.762;8.564;2024-03-23T07:37:11;6.80;99.90
15231;DHT22;32569;51.762;8.564;2024-03-23T07:39:37;6.80;99.90
15231;DHT22;32569;51.762;8.564;2024-03-23T07:42:04;6.80;99.90
15231;DHT22;32569;51.762;8.564;2024-03-23T07:44:31;7.00;99.90
15231;DHT22;32569;51.762;8.564;2024-03-23T07:46:58;7.20;99.90
15231;DHT22;32569;51.762;8.564;2024-03-23T07:49:26;7.30;99.90
15231;DHT22;32569;51.762;8.564;2024-03-23T07:51:52;7.40;99.90
15231;DHT22;32569;51.762;8.564;2024-03-23T07:54:19;7.50;99.90
15231;DHT22;32569;51.762;8.564;2024-03-23T07:56:45;7.40;99.90
15231;DHT22;32569;51.762;8.564;2024-03-23T07:59:12;7.60;99.90
15231;DHT22;32569;51.762;8.564;2024-03-23T08:01:37;7.60;99.90
15231;DHT22;32569;51.762;8.564;2024-03-23T08:04:05;7.50;99.90
15231;DHT22;32569;51.762;8.564;2024-03-23T08:06:32;7.40;99.90
15231;DHT22;32569;51.762;8.564;2024-03-23T08:08:59;7.40;99.90
15231;DHT22;32569;51.762;8.564;2024-03-23T08:11:25;7.40;99.90
15231;DHT22;32569;51.762;8.564;2024-03-23T08:13:52;7.50;99.90
15231;DHT22;32569;51.762;8.564;2024-03-23T08:16:18;7.50;99.90
15231;DHT22;32569;51.762;8.564;2024-03-23T08:18:44;7.60;99.90
15231;DHT22;32569;51.762;8.564;2024-03-23T08:21:10;7.70;99.90
15231;DHT22;32569;51.762;8.564;2024-03-23T08:23:38;7.80;99.90
15231;DHT22;32569;51.762;8.564;2024-03-23T08:26:06;7.90;99.90
15231;DHT22;32569;51.762;8.564;2024-03-23T08:28:33;7.90;99.90
15231;DHT22;32569;51.762;8.564;2024-03-23T08:31:01;8.00;99.90
15231;DHT22;32569;51.762;8.564;2024-03-23T08:33:28;8.10;99.90
15231;DHT22;32569;51.762;8.564;2024-03-23T08:35:55;8.20;99.90
15231;DHT22;32569;51.762;8.564;2024-03-23T08:38:22;8.10;99.90
15231;DHT22;32569;51.762;8.564;2024-03-23T08:40:56;7.90;99.90
15231;DHT22;32569;51.762;8.564;2024-03-23T08:43:23;7.90;99.90
15231;DHT22;32569;51.762;8.564;2024-03-23T08:45:48;7.90;99.90
15231;DHT22;32569;51.762;8.564;2024-03-23T08:48:15;7.90;99.90
15231;DHT22;32569;51.762;8.564;2024-03-23T08:50:41;7.90;99.90
15231;DHT22;32569;51.762;8.564;2024-03-23T08:53:08;8.10;99.90
15231;DHT22;32569;51.762;8.564;2024-03-23T08:55:34;8.10;99.90
15231;DHT22;32569;51.762;8.564;2024-03-23T08:58:02;8.10;99.90
15231;DHT22;32569;51.762;8.564;2024-03-23T09:00:27;8.30;99.90
15231;DHT22;32569;51.762;8.564;2024-03-23T09:02:54;8.30;99.90
15231;DHT22;32569;51.762;8.564;2024-03-23T09:05:20;8.30;99.90
15231;DHT22;32569;51.762;8.564;2024-03-23T09:07:47;8.20;99.90
15231;DHT22;32569;51.762;8.564;2024-03-23T09:10:13;8.20;99.90
15231;DHT22;32569;51.762;8.564;2024-03-23T09:12:40;8.40;99.90
15231;DHT22;32569;51.762;8.564;2024-03-23T09:15:07;8.40;99.90
15231;DHT22;32569;51.762;8.564;2024-03-23T09:17:34;8.60;99.90
15231;DHT22;32569;51.762;8.564;2024-03-23T09:20:00;8.60;99.90
15231;DHT22;32569;51.762;8.564;2024-03-23T09:22:26;8.50;99.90
15231;DHT22;32569;51.762;8.564;2024-03-23T09:24:52;8.50;99.90
15231;DHT22;32569;51.762;8.564;2024-03-23T09:27:21;8.50;99.90
15231;DHT22;32569;51.762;8.564;2024-03-23T09:29:47;8.50;99.90
15231;DHT22;32569;51.762;8.564;2024-03-23T09:32:15;8.60;99.90
15231;DHT22;32569;51.762;8.564;2024-03-23T09:34:41;8.50;99.90
15231;DHT22;32569;51.762;8.564;2024-03-23T09:37:07;8.60;99.90
15231;DHT22;32569;51.762;8.564;2024-03-23T09:39:33;8.70;99.90
15231;DHT22;32569;51.762;8.564;2024-03-23T09:42:00;8.90;99.90
15231;DHT22;32569;51.762;8.564;2024-03-23T09:44:25;9.10;99.90
15231;DHT22;32569;51.762;8.564;2024-03-23T09:46:55;9.40;99.90
15231;DHT22;32569;51.762;8.564;2024-03-23T09:49:22;9.30;99.90
15231;DHT22;32569;51.762;8.564;2024-03-23T09:51:49;9.20;99.90
15231;DHT22;32569;51.762;8.564;2024-03-23T09:54:14;9.10;99.90
15231;DHT22;32569;51.762;8.564;2024-03-23T09:56:42;9.10;99.90
15231;DHT22;32569;51.762;8.564;2024-03-23T09:59:07;9.10;99.90
15231;DHT22;32569;51.762;8.564;2024-03-23T10:01:34;9.10;99.90
15231;DHT22;32569;51.762;8.564;2024-03-23T10:04:00;9.20;99.90
15231;DHT22;32569;51.762;8.564;2024-03-23T10:06:28;9.00;99.90
15231;DHT22;32569;51.762;8.564;2024-03-23T10:08:54;9.00;99.90
15231;DHT22;32569;51.762;8.564;2024-03-23T10:11:21;9.00;99.90
15231;DHT22;32569;51.762;8.564;2024-03-23T10:13:47;8.90;99.90
15231;DHT22;32569;51.762;8.564;2024-03-23T10:16:27;8.90;99.90
15231;DHT22;32569;51.762;8.564;2024-03-23T10:18:58;8.90;99.90
15231;DHT22;32569;51.762;8.564;2024-03-23T10:21:31;8.90;99.90
15231;DHT22;32569;51.762;8.564;2024-03-23T10:24:08;9.00;99.90
15231;DHT22;32569;51.762;8.564;2024-03-23T10:26:37;9.00;99.90
15231;DHT22;32569;51.762;8.564;2024-03-23T10:29:05;8.90;99.90
15231;DHT22;32569;51.762;8.564;2024-03-23T10:31:33;8.90;99.90
15231;DHT22;32569;51.762;8.564;2024-03-23T10:34:02;8.90;99.90
15231;DHT22;32569;51.762;8.564;2024-03-23T10:36:30;8.50;99.90
15231;DHT22;32569;51.762;8.564;2024-03-23T10:38:57;8.00;98.50
15231;DHT22;32569;51.762;8.564;2024-03-23T10:41:26;7.70;99.90
15231;DHT22;32569;51.762;8.564;2024-03-23T10:43:54;7.30;99.90
15231;DHT22;32569;51.762;8.564;2024-03-23T10:46:21;6.80;99.90
15231;DHT22;32569;51.762;8.564;2024-03-23T10:48:48;6.60;99.90
15231;DHT22;32569;51.762;8.564;2024-03-23T10:51:14;6.30;99.90
15231;DHT22;32569;51.762;8.564;2024-03-23T10:53:47;6.30;99.90
15231;DHT22;32569;51.762;8.564;2024-03-23T10:56:13;6.20;99.90
15231;DHT22;32569;51.762;8.564;2024-03-23T10:58:44;6.30;99.90
15231;DHT22;32569;51.762;8.564;2024-03-23T11:01:11;6.40;99.90
15231;DHT22;32569;51.762;8.564;2024-03-23T11:03:39;6.50;99.90
15231;DHT22;32569;51.762;8.564;2024-03-23T11:06:09;6.70;99.90
15231;DHT22;32569;51.762;8.564;2024-03-23T11:08:37;7.00;99.90
15231;DHT22;32569;51.762;8.564;2024-03-23T11:11:16;7.00;99.90
15231;DHT22;32569;51.762;8.564;2024-03-23T11:13:43;7.10;99.90
15231;DHT22;32569;51.762;8.564;2024-03-23T11:16:22;7.20;99.90
15231;DHT22;32569;51.762;8.564;2024-03-23T11:18:49;7.30;99.90
15231;DHT22;32569;51.762;8.564;2024-03-23T11:24:15;7.60;99.90
15231;DHT22;32569;51.762;8.564;2024-03-23T11:26:42;7.60;99.90
15231;DHT22;32569;51.762;8.564;2024-03-23T11:29:09;7.70;99.90
15231;DHT22;32569;51.762;8.564;2024-03-23T11:31:36;7.70;99.90
15231;DHT22;32569;51.762;8.564;2024-03-23T11:34:04;7.80;99.90
15231;DHT22;32569;51.762;8.564;2024-03-23T11:36:32;7.80;99.90
15231;DHT22;32569;51.762;8.564;2024-03-23T11:39:14;7.90;99.90
15231;DHT22;32569;51.762;8.564;2024-03-23T11:41:47;8.20;99.90
15231;DHT22;32569;51.762;8.564;2024-03-23T11:44:15;8.50;99.90
15231;DHT22;32569;51.762;8.564;2024-03-23T11:46:41;8.70;99.90
15231;DHT22;32569;51.762;8.564;2024-03-23T11:49:20;9.00;99.90
15231;DHT22;32569;51.762;8.564;2024-03-23T11:51:47;9.20;99.90
15231;DHT22;32569;51.762;8.564;2024-03-23T11:54:14;9.20;99.90
15231;DHT22;32569;51.762;8.564;2024-03-23T11:56:40;9.10;99.90
15231;DHT22;32569;51.762;8.564;2024-03-23T11:59:08;9.00;99.90
15231;DHT22;32569;51.762;8.564;2024-03-23T12:01:34;8.90;99.90
15231;DHT22;32569;51.762;8.564;2024-03-23T12:04:01;8.70;99.90
15231;DHT22;32569;51.762;8.564;2024-03-23T12:06:27;8.50;99.90
15231;DHT22;32569;51.762;8.564;2024-03-23T12:09:05;8.40;99.90
15231;DHT22;32569;51.762;8.564;2024-03-23T12:11:31;8.40;99.90
15231;DHT22;32569;51.762;8.564;2024-03-23T12:13:59;8.30;99.90
15231;DHT22;32569;51.762;8.564;2024-03-23T12:16:27;8.40;99.90
15231;DHT22;32569;51.762;8.564;2024-03-23T12:19:05;8.40;99.90
15231;DHT22;32569;51.762;8.564;2024-03-23T12:21:31;8.60;99.90
15231;DHT22;32569;51.762;8.564;2024-03-23T12:23:57;8.60;99.90
15231;DHT22;32569;51.762;8.564;2024-03-23T12:26:24;8.80;99.90
15231;DHT22;32569;51.762;8.564;2024-03-23T12:28:50;8.90;99.90
15231;DHT22;32569;51.762;8.564;2024-03-23T12:31:16;8.90;99.90
15231;DHT22;32569;51.762;8.564;2024-03-23T12:33:44;8.90;99.90
15231;DHT22;32569;51.762;8.564;2024-03-23T12:36:10;8.80;99.90
15231;DHT22;32569;51.762;8.564;2024-03-23T12:38:38;8.20;99.90
15231;DHT22;32569;51.762;8.564;2024-03-23T12:41:04;8.00;99.90
15231;DHT22;32569;51.762;8.564;2024-03-23T12:43:31;7.70;99.90
15231;DHT22;32569;51.762;8.564;2024-03-23T12:45:57;7.80;99.90
15231;DHT22;32569;51.762;8.564;2024-03-23T12:48:26;8.00;99.90
15231;DHT22;32569;51.762;8.564;2024-03-23T12:50:55;8.00;99.90
15231;DHT22;32569;51.762;8.564;2024-03-23T12:53:22;8.00;99.90
15231;DHT22;32569;51.762;8.564;2024-03-23T12:55:48;8.30;99.90
15231;DHT22;32569;51.762;8.564;2024-03-23T12:58:15;8.20;99.90
15231;DHT22;32569;51.762;8.564;2024-03-23T13:00:41;8.20;99.90
15231;DHT22;32569;51.762;8.564;2024-03-23T13:03:13;8.20;99.90
15231;DHT22;32569;51.762;8.564;2024-03-23T13:05:39;8.00;99.90
15231;DHT22;32569;51.762;8.564;2024-03-23T13:08:08;8.00;99.90
15231;DHT22;32569;51.762;8.564;2024-03-23T13:10:33;8.00;99.90
15231;DHT22;32569;51.762;8.564;2024-03-23T13:13:00;8.00;99.90
15231;DHT22;32569;51.762;8.564;2024-03-23T13:15:26;8.10;99.90
15231;DHT22;32569;51.762;8.564;2024-03-23T13:17:52;8.20;99.90
15231;DHT22;32569;51.762;8.564;2024-03-23T13:20:19;8.20;99.90
15231;DHT22;32569;51.762;8.564;2024-03-23T13:22:46;8.30;99.90
15231;DHT22;32569;51.762;8.564;2024-03-23T13:25:17;8.30;99.90
15231;DHT22;32569;51.762;8.564;2024-03-23T13:27:44;8.30;99.90
15231;DHT22;32569;51.762;8.564;2024-03-23T13:30:10;8.40;99.90
15231;DHT22;32569;51.762;8.564;2024-03-23T13:32:37;8.50;99.90
15231;DHT22;32569;51.762;8.564;2024-03-23T13:35:03;8.50;99.90
15231;DHT22;32569;51.762;8.564;2024-03-23T13:37:32;8.60;99.90
15231;DHT22;32569;51.762;8.564;2024-03-23T13:39:57;8.70;99.90
15231;DHT22;32569;51.762;8.564;2024-03-23T13:42:26;8.90;99.90
15231;DHT22;32569;51.762;8.564;2024-03-23T13:44:52;8.90;99.90
15231;DHT22;32569;51.762;8.564;2024-03-23T13:47:18;8.90;99.90
15231;DHT22;32569;51.762;8.564;2024-03-23T13:49:44;8.80;99.90
15231;DHT22;32569;51.762;8.564;2024-03-23T13:52:11;8.70;99.90
15231;DHT22;32569;51.762;8.564;2024-03-23T13:54:37;8.70;99.90
15231;DHT22;32569;51.762;8.564;2024-03-23T13:57:04;8.70;99.90
15231;DHT22;32569;51.762;8.564;2024-03-23T13:59:31;8.70;99.90
15231;DHT22;32569;51.762;8.564;2024-03-23T14:01:58;8.80;99.90
15231;DHT22;32569;51.762;8.564;2024-03-23T14:04:24;9.00;99.90
15231;DHT22;32569;51.762;8.564;2024-03-23T14:06:50;9.10;99.90
15231;DHT22;32569;51.762;8.564;2024-03-23T14:09:16;9.10;99.90
15231;DHT22;32569;51.762;8.564;2024-03-23T14:11:46;9.00;99.90
15231;DHT22;32569;51.762;8.564;2024-03-23T14:14:12;8.90;99.90
15231;DHT22;32569;51.762;8.564;2024-03-23T14:16:40;8.60;99.90
15231;DHT22;32569;51.762;8.564;2024-03-23T14:19:05;7.70;99.90
15231;DHT22;32569;51.762;8.564;2024-03-23T14:21:32;7.40;99.90
15231;DHT22;32569;51.762;8.564;2024-03-23T14:23:59;7.10;99.90
15231;DHT22;32569;51.762;8.564;2024-03-23T14:26:26;7.20;99.90
15231;DHT22;32569;51.762;8.564;2024-03-23T14:28:52;7.40;99.90
15231;DHT22;32569;51.762;8.564;2024-03-23T14:31:18;7.70;99.90
15231;DHT22;32569;51.762;8.564;2024-03-23T14:33:45;7.80;99.90
15231;DHT22;32569;51.762;8.564;2024-03-23T14:36:12;7.90;99.90
15231;DHT22;32569;51.762;8.564;2024-03-23T14:38:38;8.10;99.90
15231;DHT22;32569;51.762;8.564;2024-03-23T14:41:05;8.10;99.90
15231;DHT22;32569;51.762;8.564;2024-03-23T14:43:31;8.20;99.90
15231;DHT22;32569;51.762;8.564;2024-03-23T14:46:07;8.40;99.90
15231;DHT22;32569;51.762;8.564;2024-03-23T14:48:33;8.50;99.90
15231;DHT22;32569;51.762;8.564;2024-03-23T14:51:02;8.50;99.90
15231;DHT22;32569;51.762;8.564;2024-03-23T14:53:30;8.50;99.90
15231;DHT22;32569;51.762;8.564;2024-03-23T14:55:57;8.50;99.90
15231;DHT22;32569;51.762;8.564;2024-03-23T14:58:22;8.40;99.90
15231;DHT22;32569;51.762;8.564;2024-03-23T15:00:50;8.40;99.90
15231;DHT22;32569;51.762;8.564;2024-03-23T15:03:17;8.20;99.90
15231;DHT22;32569;51.762;8.564;2024-03-23T15:05:53;8.00;99.90
15231;DHT22;32569;51.762;8.564;2024-03-23T15:08:21;7.50;99.90
15231;DHT22;32569;51.762;8.564;2024-03-23T15:10:48;7.00;99.90
15231;DHT22;32569;51.762;8.564;2024-03-23T15:13:13;6.80;99.90
15231;DHT22;32569;51.762;8.564;2024-03-23T15:15:41;6.90;99.90
15231;DHT22;32569;51.762;8.564;2024-03-23T15:18:09;7.00;99.90
15231;DHT22;32569;51.762;8.564;2024-03-23T15:20:35;7.30;99.90
15231;DHT22;32569;51.762;8.564;2024-03-23T15:23:02;7.50;99.90
15231;DHT22;32569;51.762;8.564;2024-03-23T15:25:30;7.70;99.90
15231;DHT22;32569;51.762;8.564;2024-03-23T15:27:56;7.80;99.90
15231;DHT22;32569;51.762;8.564;2024-03-23T15:30:23;7.90;99.90
15231;DHT22;32569;51.762;8.564;2024-03-23T15:32:48;8.00;99.90
15231;DHT22;32569;51.762;8.564;2024-03-23T15:35:15;8.10;99.90
15231;DHT22;32569;51.762;8.564;2024-03-23T15:37:41;8.00;99.90
15231;DHT22;32569;51.762;8.564;2024-03-23T15:40:09;8.10;99.90
15231;DHT22;32569;51.762;8.564;2024-03-23T15:42:37;8.20;99.90
15231;DHT22;32569;51.762;8.564;2024-03-23T15:45:06;8.20;99.90
15231;DHT22;32569;51.762;8.564;2024-03-23T15:47:32;8.30;99.90
15231;DHT22;32569;51.762;8.564;2024-03-23T15:49:59;8.30;99.90
15231;DHT22;32569;51.762;8.564;2024-03-23T15:52:25;8.30;99.90
15231;DHT22;32569;51.762;8.564;2024-03-23T15:54:51;8.30;99.90
15231;DHT22;32569;51.762;8.564;2024-03-23T15:57:17;8.50;99.90
15231;DHT22;32569;51.762;8.564;2024-03-23T15:59:45;8.40;99.90
15231;DHT22;32569;51.762;8.564;2024-03-23T16:02:11;8.40;99.90
15231;DHT22;32569;51.762;8.564;2024-03-23T16:04:38;8.40;99.90
15231;DHT22;32569;51.762;8.564;2024-03-23T16:07:03;8.40;99.90
15231;DHT22;32569;51.762;8.564;2024-03-23T16:09:30;8.40;99.90
15231;DHT22;32569;51.762;8.564;2024-03-23T16:11:59;8.30;99.90
15231;DHT22;32569;51.762;8.564;2024-03-23T16:14:25;8.40;99.90
15231;DHT22;32569;51.762;8.564;2024-03-23T16:16:52;8.40;99.90
15231;DHT22;32569;51.762;8.564;2024-03-23T16:19:19;8.50;99.90
15231;DHT22;32569;51.762;8.564;2024-03-23T16:21:44;8.50;99.90
15231;DHT22;32569;51.762;8.564;2024-03-23T16:24:11;8.50;99.90
15231;DHT22;32569;51.762;8.564;2024-03-23T16:26:37;8.40;99.90
15231;DHT22;32569;51.762;8.564;2024-03-23T16:29:03;8.40;99.90
15231;DHT22;32569;51.762;8.564;2024-03-23T16:31:29;8.40;99.90
15231;DHT22;32569;51.762;8.564;2024-03-23T16:33:58;8.30;99.90
15231;DHT22;32569;51.762;8.564;2024-03-23T16:36:23;8.30;99.90
15231;DHT22;32569;51.762;8.564;2024-03-23T16:38:51;8.30;99.90
15231;DHT22;32569;51.762;8.564;2024-03-23T16:41:17;8.30;99.90